createdAt,value
2023-04-01T00:01:19.696Z,11.36
2023-04-01T00:03:48.335Z,11.25
2023-04-01T00:06:19.821Z,10.94
2023-04-01T00:08:49.535Z,10.49
2023-04-01T00:11:20.502Z,10.82
2023-04-01T00:13:49.728Z,10.49
2023-04-01T00:16:22.144Z,10.64
2023-04-01T00:18:52.233Z,10.41
2023-04-01T00:21:22.882Z,10.54
2023-04-01T00:23:53.290Z,10.47
2023-04-01T00:26:23.431Z,10.65
2023-04-01T00:28:52.315Z,10.08
2023-04-01T00:31:20.904Z,10.70
2023-04-01T00:33:49.410Z,11.50
2023-04-01T00:36:20.127Z,12.08
2023-04-01T00:38:48.896Z,10.20
2023-04-01T00:41:20.441Z,10.72
2023-04-01T00:43:51.763Z,10.96
2023-04-01T00:46:20.549Z,10.70
2023-04-01T00:48:53.296Z,10.41
2023-04-01T00:51:26.044Z,10.28
2023-04-01T00:53:58.144Z,10.34
2023-04-01T00:56:32.622Z,10.11
2023-04-01T00:59:09.139Z,10.59
2023-04-01T01:01:38.482Z,10.64
2023-04-01T01:04:07.136Z,10.88
2023-04-01T01:06:49.104Z,11.56
2023-04-01T01:09:36.745Z,11.52
2023-04-01T01:12:15.411Z,11.14
2023-04-01T01:14:57.490Z,10.81
2023-04-01T01:17:42.054Z,10.24
2023-04-01T01:21:05.631Z,10.68
2023-04-01T01:24:26.180Z,11.17
2023-04-01T01:27:04.731Z,10.55
2023-04-01T01:30:02.206Z,10.15
2023-04-01T01:33:09.030Z,10.79
2023-04-01T01:35:43.411Z,10.88
2023-04-01T01:38:16.895Z,10.60
2023-04-01T01:40:52.811Z,10.99
2023-04-01T01:43:27.129Z,11.20
2023-04-01T01:45:59.387Z,10.80
2023-04-01T01:48:30.709Z,10.51
2023-04-01T01:51:00.851Z,10.74
2023-04-01T01:53:29.144Z,10.51
2023-04-01T01:55:57.885Z,10.24
2023-04-01T01:58:32.216Z,10.70
2023-04-01T02:01:04.536Z,10.64
2023-04-01T02:03:37.885Z,10.80
2023-04-01T02:06:12.484Z,11.11
2023-04-01T02:08:46.534Z,10.35
2023-04-01T02:11:20.159Z,10.42
2023-04-01T02:13:54.708Z,10.21
2023-04-01T02:16:28.237Z,10.29
2023-04-01T02:19:00.527Z,10.36
2023-04-01T02:21:34.408Z,10.70
2023-04-01T02:24:07.523Z,10.25
2023-04-01T02:26:37.175Z,9.95
2023-04-01T02:29:11.163Z,10.90
2023-04-01T02:31:39.704Z,10.94
2023-04-01T02:34:08.188Z,10.98
2023-04-01T02:36:40.007Z,10.77
2023-04-01T02:39:09.225Z,11.01
2023-04-01T02:41:42.573Z,10.77
2023-04-01T02:44:11.670Z,10.65
2023-04-01T02:46:40.154Z,11.63
2023-04-01T02:49:08.646Z,10.73
2023-04-01T02:51:38.595Z,11.48
2023-04-01T02:54:07.023Z,11.26
2023-04-01T02:56:35.482Z,11.33
2023-04-01T02:59:03.799Z,11.52
2023-04-01T03:01:32.155Z,11.18
2023-04-01T03:04:00.462Z,11.33
2023-04-01T03:06:28.800Z,12.36
2023-04-01T03:08:58.634Z,10.99
2023-04-01T03:11:27.261Z,10.92
2023-04-01T03:13:55.594Z,11.72
2023-04-01T03:16:24.573Z,11.59
2023-04-01T03:18:53.719Z,10.79
2023-04-01T03:21:24.327Z,10.53
2023-04-01T03:23:52.706Z,11.10
2023-04-01T03:26:22.562Z,11.28
2023-04-01T03:28:51.052Z,11.06
2023-04-01T03:31:20.440Z,10.73
2023-04-01T03:33:50.743Z,11.11
2023-04-01T03:36:19.572Z,10.53
2023-04-01T03:38:48.314Z,11.61
2023-04-01T03:41:18.641Z,12.14
2023-04-01T03:43:48.297Z,12.57
2023-04-01T03:46:20.097Z,11.69
2023-04-01T03:48:48.788Z,11.18
2023-04-01T03:51:17.390Z,10.80
2023-04-01T03:53:45.888Z,11.43
2023-04-01T03:56:14.256Z,11.25
2023-04-01T03:58:42.634Z,11.03
2023-04-01T04:01:21.714Z,11.33
2023-04-01T04:03:51.246Z,11.27
2023-04-01T04:06:21.293Z,10.83
2023-04-01T04:08:49.669Z,11.87
2023-04-01T04:11:18.821Z,11.24
2023-04-01T04:13:48.750Z,11.44
2023-04-01T04:16:19.413Z,11.61
2023-04-01T04:18:47.760Z,11.59
2023-04-01T04:21:16.815Z,11.79
2023-04-01T04:23:45.641Z,11.79
2023-04-01T04:26:16.957Z,12.37
2023-04-01T04:28:45.282Z,11.94
2023-04-01T04:31:13.808Z,12.80
2023-04-01T04:33:43.543Z,12.53
2023-04-01T04:36:11.921Z,12.10
2023-04-01T04:38:40.293Z,12.00
2023-04-01T04:41:12.855Z,12.12
2023-04-01T04:43:41.737Z,12.54
2023-04-01T04:46:11.018Z,12.80
2023-04-01T04:48:39.502Z,12.17
2023-04-01T04:51:09.215Z,12.56
2023-04-01T04:53:37.549Z,12.63
2023-04-01T04:56:05.905Z,12.72
2023-04-01T04:58:34.769Z,12.19
2023-04-01T05:01:09.330Z,11.60
2023-04-01T05:03:37.743Z,11.48
2023-04-01T05:06:09.492Z,11.30
2023-04-01T05:08:39.819Z,11.64
2023-04-01T05:11:13.944Z,11.51
2023-04-01T05:13:42.709Z,10.98
2023-04-01T05:16:12.712Z,11.15
2023-04-01T05:18:41.505Z,11.32
2023-04-01T05:21:13.278Z,12.33
2023-04-01T05:23:42.225Z,11.73
2023-04-01T05:26:13.483Z,11.53
2023-04-01T05:28:42.162Z,10.98
2023-04-01T05:31:11.372Z,11.08
2023-04-01T05:33:40.179Z,11.13
2023-04-01T05:36:12.191Z,11.06
2023-04-01T05:38:40.713Z,11.53
2023-04-01T05:41:09.036Z,12.00
2023-04-01T05:43:38.661Z,12.26
2023-04-01T05:46:07.076Z,11.33
2023-04-01T05:48:36.298Z,10.83
2023-04-01T05:51:05.190Z,11.62
2023-04-01T05:53:34.965Z,11.35
2023-04-01T05:56:05.946Z,11.15
2023-04-01T05:58:34.330Z,10.80
2023-04-01T06:01:10.099Z,11.27
2023-04-01T06:03:41.156Z,10.46
2023-04-01T06:06:16.919Z,10.37
2023-04-01T06:08:46.630Z,10.22
2023-04-01T06:11:29.187Z,10.85
2023-04-01T06:14:19.284Z,11.05
2023-04-01T06:17:07.545Z,10.97
2023-04-01T06:19:49.767Z,10.67
2023-04-01T06:22:49.855Z,11.00
2023-04-01T06:25:49.921Z,11.13
2023-04-01T06:29:13.244Z,10.49
2023-04-01T06:32:02.180Z,10.55
2023-04-01T06:34:55.356Z,10.46
2023-04-01T06:37:59.891Z,10.95
2023-04-01T06:41:20.590Z,11.12
2023-04-01T06:44:01.381Z,11.85
2023-04-01T06:46:43.212Z,11.19
2023-04-01T06:49:34.343Z,10.13
2023-04-01T06:52:14.951Z,11.40
2023-04-01T06:54:49.240Z,10.51
2023-04-01T06:57:30.702Z,11.58
2023-04-01T07:00:01.929Z,11.35
2023-04-01T07:02:41.360Z,11.11
2023-04-01T07:05:11.882Z,10.78
2023-04-01T07:07:45.705Z,11.07
2023-04-01T07:10:19.886Z,11.41
2023-04-01T07:12:55.943Z,11.28
2023-04-01T07:15:32.234Z,11.13
2023-04-01T07:18:09.260Z,10.60
2023-04-01T07:20:40.075Z,10.13
2023-04-01T07:23:17.575Z,10.72
2023-04-01T07:25:49.380Z,10.73
2023-04-01T07:28:19.318Z,11.06
2023-04-01T07:31:04.798Z,10.29
2023-04-01T07:33:41.588Z,10.67
2023-04-01T07:36:20.136Z,10.82
2023-04-01T07:39:01.382Z,10.29
2023-04-01T07:41:43.342Z,11.60
2023-04-01T07:44:20.352Z,11.97
2023-04-01T07:47:05.725Z,10.96
2023-04-01T07:49:43.928Z,10.59
2023-04-01T07:52:20.534Z,10.46
2023-04-01T07:54:57.530Z,11.54
2023-04-01T07:57:36.049Z,10.96
2023-04-01T08:00:14.925Z,11.05
2023-04-01T08:03:05.592Z,10.12
2023-04-01T08:05:44.613Z,11.03
2023-04-01T08:08:21.955Z,10.96
2023-04-01T08:10:57.637Z,11.78
2023-04-01T08:13:39.585Z,12.43
2023-04-01T08:16:18.876Z,12.08
2023-04-01T08:19:02.290Z,11.91
2023-04-01T08:21:34.746Z,11.24
2023-04-01T08:24:13.433Z,11.92
2023-04-01T08:26:46.512Z,11.37
2023-04-01T08:29:21.713Z,11.69
2023-04-01T08:31:57.459Z,12.01
2023-04-01T08:34:30.363Z,11.87
2023-04-01T08:37:06.436Z,11.20
2023-04-01T08:39:40.101Z,11.49
2023-04-01T08:42:54.384Z,11.17
2023-04-01T08:46:16.294Z,11.89
2023-04-01T08:49:07.118Z,10.58
2023-04-01T08:52:09.721Z,11.21
2023-04-01T08:55:24.788Z,11.87
2023-04-01T08:58:19.873Z,11.74
2023-04-01T09:00:55.012Z,11.05
2023-04-01T09:03:46.590Z,10.76
2023-04-01T09:06:33.807Z,10.98
2023-04-01T09:09:56.027Z,11.98
2023-04-01T09:13:02.165Z,10.82
2023-04-01T09:16:17.877Z,10.42
2023-04-01T09:19:28.393Z,11.07
2023-04-01T09:22:24.379Z,11.55
2023-04-01T09:25:40.783Z,11.67
2023-04-01T09:28:15.029Z,12.15
2023-04-01T09:31:26.123Z,12.02
2023-04-01T09:34:22.649Z,10.91
2023-04-01T09:37:09.524Z,11.48
2023-04-01T09:39:46.117Z,12.46
2023-04-01T09:42:43.610Z,11.37
2023-04-01T09:45:26.003Z,11.33
2023-04-01T09:48:12.866Z,11.15
2023-04-01T09:50:50.903Z,11.19
2023-04-01T09:53:47.501Z,10.90
2023-04-01T09:56:40.978Z,11.60
2023-04-01T10:00:17.933Z,12.07
2023-04-01T10:03:33.955Z,11.20
2023-04-01T10:07:02.168Z,11.52
2023-04-01T10:10:21.904Z,10.84
2023-04-01T10:13:19.821Z,10.61
2023-04-01T10:16:44.051Z,10.77
2023-04-01T10:19:49.097Z,10.72
2023-04-01T10:22:38.664Z,11.26
2023-04-01T10:25:29.906Z,10.90
2023-04-01T10:28:57.324Z,10.98
2023-04-01T10:32:17.710Z,11.54
2023-04-01T10:35:36.410Z,11.15
2023-04-01T10:39:10.381Z,11.16
2023-04-01T10:42:18.527Z,10.77
2023-04-01T10:45:29.238Z,11.42
2023-04-01T10:48:25.706Z,11.13
2023-04-01T10:51:19.852Z,10.94
2023-04-01T10:54:21.697Z,11.72
2023-04-01T10:56:58.215Z,11.74
2023-04-01T11:00:32.936Z,11.40
2023-04-01T11:03:54.330Z,11.73
2023-04-01T11:07:10.507Z,11.91
2023-04-01T11:10:14.644Z,11.80
2023-04-01T11:13:33.945Z,11.57
2023-04-01T11:16:47.459Z,12.55
2023-04-01T11:20:10.239Z,12.99
2023-04-01T11:23:28.339Z,12.01
2023-04-01T11:26:10.142Z,11.82
2023-04-01T11:29:21.327Z,11.26
2023-04-01T11:32:03.148Z,12.24
2023-04-01T11:35:02.161Z,11.35
2023-04-01T11:37:43.348Z,11.45
2023-04-01T11:40:24.673Z,11.77
2023-04-01T11:43:01.403Z,11.29
2023-04-01T11:45:40.823Z,11.14
2023-04-01T11:48:36.165Z,11.19
2023-04-01T11:51:57.605Z,12.36
2023-04-01T11:54:40.894Z,11.80
2023-04-01T11:57:48.541Z,11.37
2023-04-01T12:01:00.155Z,11.65
2023-04-01T12:04:30.171Z,11.46
2023-04-01T12:07:07.892Z,11.05
2023-04-01T12:09:47.391Z,11.03
2023-04-01T12:12:29.322Z,11.11
2023-04-01T12:15:16.688Z,11.10
2023-04-01T12:17:53.155Z,11.32
2023-04-01T12:20:39.715Z,11.73
2023-04-01T12:23:31.581Z,11.60
2023-04-01T12:26:17.410Z,12.05
2023-04-01T12:29:06.651Z,12.32
2023-04-01T12:31:48.091Z,12.54
2023-04-01T12:34:59.382Z,11.54
2023-04-01T12:37:41.731Z,11.12
2023-04-01T12:40:33.777Z,11.83
2023-04-01T12:43:25.345Z,11.64
2023-04-01T12:46:05.070Z,12.23
2023-04-01T12:49:21.845Z,12.35
2023-04-01T12:52:11.170Z,11.89
2023-04-01T12:55:31.309Z,11.66
2023-04-01T12:58:46.580Z,12.67
2023-04-01T13:04:50.006Z,11.29
2023-04-01T13:07:48.612Z,11.11
2023-04-01T13:10:44.106Z,11.82
2023-04-01T13:13:46.621Z,11.16
2023-04-01T13:16:20.235Z,10.74
2023-04-01T13:19:00.715Z,10.88
2023-04-01T13:21:41.247Z,11.13
2023-04-01T13:24:23.706Z,11.12
2023-04-01T13:27:04.690Z,11.01
2023-04-01T13:29:38.388Z,11.17
2023-04-01T13:35:28.544Z,11.69
2023-04-01T13:38:41.805Z,11.35
2023-04-01T13:41:23.114Z,11.67
2023-04-01T13:44:01.081Z,11.25
2023-04-01T13:46:44.138Z,11.91
2023-04-01T13:49:38.497Z,11.29
2023-04-01T13:52:57.328Z,11.28
2023-04-01T13:55:57.303Z,11.57
2023-04-01T13:59:25.965Z,10.78
2023-04-01T14:02:06.520Z,11.36
2023-04-01T14:04:49.849Z,11.53
2023-04-01T14:07:43.130Z,11.53
2023-04-01T14:10:22.991Z,10.93
2023-04-01T14:13:00.928Z,11.46
2023-04-01T14:15:43.913Z,11.52
2023-04-01T14:18:37.524Z,11.48
2023-04-01T14:21:24.827Z,12.01
2023-04-01T14:24:25.646Z,11.86
2023-04-01T14:27:21.267Z,11.97
2023-04-01T14:30:06.109Z,12.47
2023-04-01T14:32:50.472Z,12.03
2023-04-01T14:35:37.591Z,11.38
2023-04-01T14:38:35.656Z,12.05
2023-04-01T14:41:19.333Z,12.14
2023-04-01T14:44:28.157Z,11.50
2023-04-01T14:47:33.316Z,12.05
2023-04-01T14:50:14.456Z,11.89
2023-04-01T14:52:48.717Z,11.73
2023-04-01T14:55:33.588Z,12.25
2023-04-01T14:58:11.996Z,12.39
2023-04-01T15:00:54.271Z,12.53
2023-04-01T15:03:31.510Z,12.75
2023-04-01T15:06:37.717Z,11.86
2023-04-01T15:09:14.548Z,11.26
2023-04-01T15:11:58.623Z,11.12
2023-04-01T15:14:49.161Z,11.02
2023-04-01T15:17:45.464Z,11.88
2023-04-01T15:20:47.709Z,11.92
2023-04-01T15:23:32.173Z,12.07
2023-04-01T15:26:24.078Z,12.79
2023-04-01T15:29:18.499Z,11.74
2023-04-01T15:31:59.151Z,12.47
2023-04-01T15:34:38.850Z,11.80
2023-04-01T15:37:17.112Z,11.70
2023-04-01T15:39:57.971Z,11.26
2023-04-01T15:42:46.263Z,12.13
2023-04-01T15:45:35.864Z,12.69
2023-04-01T15:48:29.941Z,12.61
2023-04-01T15:51:13.386Z,12.66
2023-04-01T15:54:18.734Z,11.72
2023-04-01T15:57:06.316Z,11.68
2023-04-01T16:00:17.355Z,11.46
2023-04-01T16:02:54.875Z,11.98
2023-04-01T16:05:44.012Z,11.68
2023-04-01T16:08:44.307Z,12.72
2023-04-01T16:11:24.028Z,13.53
2023-04-01T16:14:07.397Z,13.41
2023-04-01T16:16:52.621Z,13.06
2023-04-01T16:19:49.291Z,12.91
2023-04-01T16:22:25.171Z,13.00
2023-04-01T16:25:03.517Z,12.60
2023-04-01T16:27:42.563Z,12.98
2023-04-01T16:30:35.889Z,12.49
2023-04-01T16:33:12.501Z,12.84
2023-04-01T16:35:49.409Z,12.52
2023-04-01T16:38:26.667Z,12.03
2023-04-01T16:41:09.916Z,12.64
2023-04-01T16:43:47.667Z,12.65
2023-04-01T16:46:41.643Z,13.05
2023-04-01T16:49:35.108Z,12.76
2023-04-01T16:52:19.540Z,13.04
2023-04-01T16:54:57.901Z,11.87
2023-04-01T16:57:32.500Z,12.77
2023-04-01T17:00:17.078Z,13.01
2023-04-01T17:02:57.492Z,12.55
2023-04-01T17:05:52.181Z,12.15
2023-04-01T17:08:32.557Z,12.76
2023-04-01T17:11:12.779Z,12.95
2023-04-01T17:13:55.768Z,12.25
2023-04-01T17:16:50.504Z,12.52
2023-04-01T17:19:42.747Z,12.31
2023-04-01T17:22:27.827Z,12.05
2023-04-01T17:25:12.310Z,12.73
2023-04-01T17:27:53.031Z,12.28
2023-04-01T17:30:33.910Z,12.64
2023-04-01T17:33:27.919Z,13.12
2023-04-01T17:36:03.861Z,12.78
2023-04-01T17:39:40.825Z,13.37
2023-04-01T17:42:14.166Z,12.67
2023-04-01T17:44:55.991Z,12.29
2023-04-01T17:47:43.301Z,13.00
2023-04-01T17:50:26.762Z,13.31
2023-04-01T17:53:21.727Z,13.05
2023-04-01T17:56:02.616Z,12.79
2023-04-01T17:58:42.048Z,12.80
2023-04-01T18:01:35.555Z,13.39
2023-04-01T18:04:29.342Z,13.07
2023-04-01T18:07:28.666Z,13.48
2023-04-01T18:10:21.333Z,12.60
2023-04-01T18:13:22.268Z,13.34
2023-04-01T18:16:01.901Z,13.00
2023-04-01T18:18:45.882Z,13.25
2023-04-01T18:21:25.418Z,13.30
2023-04-01T18:24:02.722Z,13.13
2023-04-01T18:26:37.027Z,12.80
2023-04-01T18:29:16.616Z,13.12
2023-04-01T18:31:49.933Z,12.57
2023-04-01T18:34:22.632Z,12.89
2023-04-01T18:36:55.393Z,13.25
2023-04-01T18:39:35.817Z,12.47
2023-04-01T18:42:17.113Z,13.17
2023-04-01T18:44:50.990Z,12.71
2023-04-01T18:47:29.276Z,13.21
2023-04-01T18:50:04.265Z,12.57
2023-04-01T18:52:38.886Z,12.95
2023-04-01T18:55:35.458Z,12.91
2023-04-01T18:58:26.430Z,13.22
2023-04-01T19:01:10.107Z,13.21
2023-04-01T19:03:45.406Z,12.25
2023-04-01T19:06:22.227Z,13.02
2023-04-01T19:08:53.396Z,13.23
2023-04-01T19:11:32.376Z,13.15
2023-04-01T19:14:15.155Z,12.97
2023-04-01T19:16:54.469Z,13.17
2023-04-01T19:19:43.815Z,13.51
2023-04-01T19:22:28.792Z,13.66
2023-04-01T19:25:16.164Z,13.83
2023-04-01T19:27:50.815Z,13.65
2023-04-01T19:30:48.254Z,13.82
2023-04-01T19:33:35.996Z,13.61
2023-04-01T19:36:18.655Z,13.75
2023-04-01T19:39:02.760Z,13.72
2023-04-01T19:41:41.723Z,13.83
2023-04-01T19:44:25.483Z,12.51
2023-04-01T19:47:03.794Z,12.76
2023-04-01T19:49:54.938Z,13.26
2023-04-01T19:52:34.261Z,12.95
2023-04-01T19:55:16.888Z,12.66
2023-04-01T19:57:54.958Z,11.52
2023-04-01T20:00:28.054Z,11.98
2023-04-01T20:03:07.456Z,11.59
2023-04-01T20:05:52.996Z,11.81
2023-04-01T20:08:34.155Z,12.11
2023-04-01T20:11:19.084Z,12.06
2023-04-01T20:14:00.482Z,12.04
2023-04-01T20:16:51.095Z,11.61
2023-04-01T20:19:37.326Z,11.51
2023-04-01T20:22:18.441Z,11.93
2023-04-01T20:24:49.126Z,11.49
2023-04-01T20:27:23.420Z,11.63
2023-04-01T20:30:29.248Z,12.26
2023-04-01T20:33:25.267Z,11.88
2023-04-01T20:36:08.956Z,11.71
2023-04-01T20:39:21.668Z,11.48
2023-04-01T20:42:14.171Z,11.13
2023-04-01T20:44:48.735Z,11.13
2023-04-01T20:47:24.583Z,11.41
2023-04-01T20:50:02.851Z,11.42
2023-04-01T20:52:42.987Z,9.98
2023-04-01T20:55:36.980Z,10.60
2023-04-01T20:58:19.669Z,10.53
2023-04-01T21:01:00.003Z,11.48
2023-04-01T21:03:47.355Z,10.95
2023-04-01T21:06:39.592Z,10.88
2023-04-01T21:09:32.164Z,11.27
2023-04-01T21:12:11.763Z,10.16
2023-04-01T21:15:21.303Z,10.31
2023-04-01T21:18:06.532Z,10.78
2023-04-01T21:21:16.788Z,10.17
2023-04-01T21:24:30.883Z,10.69
2023-04-01T21:27:11.459Z,10.68
2023-04-01T21:29:59.096Z,9.88
2023-04-01T21:32:55.037Z,10.36
2023-04-01T21:35:37.664Z,9.95
2023-04-01T21:38:41.133Z,9.99
2023-04-01T21:41:32.285Z,10.83
2023-04-01T21:44:49.789Z,10.36
2023-04-01T21:48:08.289Z,11.56
2023-04-01T21:50:55.683Z,10.40
2023-04-01T21:54:24.863Z,10.44
2023-04-01T21:57:46.836Z,10.95
2023-04-01T22:00:21.486Z,10.12
2023-04-01T22:03:47.955Z,10.46
2023-04-01T22:06:27.047Z,10.89
2023-04-01T22:09:07.758Z,10.14
2023-04-01T22:11:55.412Z,10.18
2023-04-01T22:14:32.522Z,9.79
2023-04-01T22:17:09.121Z,10.13
2023-04-01T22:19:47.714Z,10.18
2023-04-01T22:22:24.760Z,9.37
2023-04-01T22:25:05.629Z,8.99
2023-04-01T22:27:41.744Z,9.43
2023-04-01T22:30:20.899Z,9.67
2023-04-01T22:32:53.303Z,9.67
2023-04-01T22:35:35.820Z,9.98
2023-04-01T22:38:14.845Z,10.02
2023-04-01T22:40:49.097Z,10.65
2023-04-01T22:43:26.771Z,10.07
2023-04-01T22:46:11.656Z,9.38
2023-04-01T22:48:46.031Z,9.37
2023-04-01T22:51:20.799Z,9.75
2023-04-01T22:54:01.511Z,9.03
2023-04-01T22:56:36.187Z,8.75
2023-04-01T22:59:14.355Z,8.38
2023-04-01T23:01:47.227Z,8.20
2023-04-01T23:04:23.730Z,8.85
2023-04-01T23:06:57.303Z,9.43
2023-04-01T23:09:28.050Z,8.71
2023-04-01T23:12:00.521Z,8.60
2023-04-01T23:14:45.339Z,8.78
2023-04-01T23:17:46.751Z,8.59
2023-04-01T23:20:28.295Z,8.70
2023-04-01T23:23:12.950Z,8.64
2023-04-01T23:25:49.268Z,8.25
2023-04-01T23:28:49.814Z,8.08
2023-04-01T23:31:43.458Z,8.43
2023-04-01T23:34:26.147Z,8.52
2023-04-01T23:36:58.728Z,8.21
2023-04-01T23:39:31.905Z,8.84
2023-04-01T23:42:04.500Z,8.45
2023-04-01T23:44:35.549Z,8.88
2023-04-01T23:47:06.698Z,8.90
2023-04-01T23:49:40.807Z,8.49
2023-04-01T23:52:19.200Z,8.86
2023-04-01T23:54:53.561Z,10.18
2023-04-01T23:57:26.265Z,10.07
